createdAt,value
2022-09-04T00:01:29.350Z,72.71
2022-09-04T00:03:42.194Z,72.59
2022-09-04T00:05:51.411Z,72.85
2022-09-04T00:08:02.864Z,72.89
2022-09-04T00:10:30.817Z,73.17
2022-09-04T00:12:56.642Z,72.90
2022-09-04T00:15:08.260Z,73.09
2022-09-04T00:17:23.002Z,73.06
2022-09-04T00:19:33.547Z,72.96
2022-09-04T00:22:00.293Z,72.80
2022-09-04T00:24:11.271Z,72.59
2022-09-04T00:26:46.638Z,73.06
2022-09-04T00:28:59.171Z,72.86
2022-09-04T00:31:10.688Z,73.12
2022-09-04T00:33:26.126Z,72.86
2022-09-04T00:35:34.095Z,72.66
2022-09-04T00:37:48.905Z,72.63
2022-09-04T00:40:15.597Z,72.79
2022-09-04T00:42:39.419Z,72.70
2022-09-04T00:44:58.180Z,72.47
2022-09-04T00:47:34.845Z,72.71
2022-09-04T00:49:44.943Z,72.46
2022-09-04T00:52:11.978Z,72.75
2022-09-04T00:54:36.046Z,72.77
2022-09-04T00:56:55.382Z,72.85
2022-09-04T00:59:33.983Z,72.88
2022-09-04T01:01:38.659Z,72.79
2022-09-04T01:04:14.576Z,73.19
2022-09-04T01:06:58.803Z,73.31
2022-09-04T01:09:39.560Z,72.81
2022-09-04T01:11:56.529Z,73.11
2022-09-04T01:14:13.407Z,73.33
2022-09-04T01:16:25.416Z,73.53
2022-09-04T01:18:35.253Z,73.35
2022-09-04T01:20:52.733Z,73.34
2022-09-04T01:23:19.900Z,73.79
2022-09-04T01:26:00.403Z,74.02
2022-09-04T01:28:09.984Z,73.83
2022-09-04T01:30:17.892Z,74.13
2022-09-04T01:32:45.899Z,74.53
2022-09-04T01:35:17.723Z,74.20
2022-09-04T01:37:32.106Z,74.41
2022-09-04T01:39:38.307Z,74.52
2022-09-04T01:41:51.753Z,74.88
2022-09-04T01:43:54.737Z,74.71
2022-09-04T01:46:31.984Z,74.97
2022-09-04T01:49:05.363Z,75.23
2022-09-04T01:51:52.705Z,75.19
2022-09-04T01:54:13.038Z,75.25
2022-09-04T01:56:22.239Z,75.50
2022-09-04T01:58:35.639Z,75.33
2022-09-04T02:00:53.712Z,75.52
2022-09-04T02:03:02.445Z,75.89
2022-09-04T02:05:20.239Z,75.39
2022-09-04T02:07:33.545Z,75.62
2022-09-04T02:10:08.020Z,75.33
2022-09-04T02:12:35.603Z,75.05
2022-09-04T02:14:38.314Z,75.29
2022-09-04T02:17:16.559Z,75.24
2022-09-04T02:19:33.967Z,74.90
2022-09-04T02:21:49.288Z,74.82
2022-09-04T02:24:22.751Z,74.83
2022-09-04T02:26:34.443Z,74.96
2022-09-04T02:28:58.811Z,74.65
2022-09-04T02:31:15.921Z,74.44
2022-09-04T02:33:32.324Z,73.93
2022-09-04T02:35:57.895Z,73.89
2022-09-04T02:38:31.213Z,73.98
2022-09-04T02:40:39.760Z,73.29
2022-09-04T02:42:57.562Z,73.18
2022-09-04T02:45:12.237Z,73.04
2022-09-04T02:47:35.664Z,72.74
2022-09-04T02:50:15.141Z,72.20
2022-09-04T02:52:42.281Z,72.31
2022-09-04T02:54:48.763Z,72.04
2022-09-04T02:57:09.535Z,71.77
2022-09-04T02:59:49.509Z,71.74
2022-09-04T03:02:05.200Z,71.63
2022-09-04T03:04:28.264Z,71.70
2022-09-04T03:07:12.329Z,71.27
2022-09-04T03:09:34.548Z,71.51
2022-09-04T03:11:42.409Z,71.24
2022-09-04T03:14:00.995Z,72.12
2022-09-04T03:16:16.544Z,71.95
2022-09-04T03:18:54.403Z,72.42
2022-09-04T03:21:35.523Z,72.06
2022-09-04T03:23:52.698Z,72.35
2022-09-04T03:26:15.827Z,72.46
2022-09-04T03:28:28.157Z,72.28
2022-09-04T03:30:35.678Z,71.86
2022-09-04T03:32:53.609Z,71.68
2022-09-04T03:35:14.555Z,71.20
2022-09-04T03:37:36.565Z,70.63
2022-09-04T03:40:07.979Z,70.99
2022-09-04T03:42:19.426Z,70.60
2022-09-04T03:44:39.977Z,70.38
2022-09-04T03:47:01.075Z,69.72
2022-09-04T03:49:16.594Z,69.63
2022-09-04T03:51:54.961Z,68.93
2022-09-04T03:54:17.881Z,68.87
2022-09-04T03:56:20.569Z,68.31
2022-09-04T03:58:38.372Z,67.94
2022-09-04T04:00:51.877Z,68.28
2022-09-04T04:03:19.831Z,68.04
2022-09-04T04:05:37.245Z,67.68
2022-09-04T04:08:04.231Z,67.44
2022-09-04T04:10:47.592Z,66.45
2022-09-04T04:12:59.452Z,65.98
2022-09-04T04:15:10.875Z,65.33
2022-09-04T04:17:29.172Z,65.76
2022-09-04T04:19:53.653Z,65.32
2022-09-04T04:22:27.574Z,64.63
2022-09-04T04:24:54.472Z,64.74
2022-09-04T04:27:11.351Z,64.37
2022-09-04T04:29:19.738Z,64.16
2022-09-04T04:31:28.421Z,63.33
2022-09-04T04:33:48.040Z,62.42
2022-09-04T04:36:02.785Z,62.74
2022-09-04T04:38:18.748Z,61.72
2022-09-04T04:40:33.666Z,61.29
2022-09-04T04:42:56.820Z,61.47
2022-09-04T04:45:27.263Z,61.81
2022-09-04T04:47:53.372Z,61.74
2022-09-04T04:50:23.951Z,62.53
2022-09-04T04:52:51.269Z,62.07
2022-09-04T04:55:23.681Z,61.50
2022-09-04T04:57:49.017Z,61.31
2022-09-04T05:00:06.398Z,60.27
2022-09-04T05:02:21.629Z,60.18
2022-09-04T05:04:40.626Z,59.54
2022-09-04T05:06:53.145Z,59.27
2022-09-04T05:09:13.576Z,58.42
2022-09-04T05:11:37.848Z,58.23
2022-09-04T05:14:06.967Z,58.16
2022-09-04T05:16:26.090Z,57.45
2022-09-04T05:18:38.322Z,57.82
2022-09-04T05:20:58.411Z,56.35
2022-09-04T05:23:17.978Z,56.08
2022-09-04T05:25:57.623Z,55.63
2022-09-04T05:28:05.790Z,56.00
2022-09-04T05:30:23.859Z,55.96
2022-09-04T05:32:40.164Z,56.77
2022-09-04T05:35:02.285Z,56.74
2022-09-04T05:37:57.114Z,56.40
2022-09-04T05:40:04.330Z,56.80
2022-09-04T05:42:39.185Z,56.84
2022-09-04T05:44:54.858Z,56.72
2022-09-04T05:47:22.026Z,56.86
2022-09-04T05:50:03.413Z,56.58
2022-09-04T05:52:30.287Z,56.02
2022-09-04T05:54:57.917Z,55.43
2022-09-04T05:57:23.151Z,56.41
2022-09-04T05:59:45.506Z,55.91
2022-09-04T06:02:10.052Z,55.23
2022-09-04T06:04:36.210Z,55.52
2022-09-04T06:06:57.525Z,55.00
2022-09-04T06:09:03.059Z,54.43
2022-09-04T06:11:27.376Z,53.22
2022-09-04T06:14:06.855Z,53.44
2022-09-04T06:16:14.200Z,53.73
2022-09-04T06:18:37.368Z,53.52
2022-09-04T06:21:11.601Z,53.22
2022-09-04T06:23:25.812Z,53.69
2022-09-04T06:25:57.063Z,53.15
2022-09-04T06:28:07.246Z,53.59
2022-09-04T06:30:12.824Z,53.22
2022-09-04T06:32:40.508Z,53.67
2022-09-04T06:34:59.146Z,53.93
2022-09-04T06:37:44.658Z,53.31
2022-09-04T06:40:08.587Z,53.20
2022-09-04T06:42:35.640Z,53.29
2022-09-04T06:44:46.259Z,52.66
2022-09-04T06:46:51.430Z,52.85
2022-09-04T06:49:13.518Z,52.64
2022-09-04T06:51:22.138Z,51.95
2022-09-04T06:53:50.679Z,51.98
2022-09-04T06:56:11.362Z,51.80
2022-09-04T06:58:22.956Z,51.10
2022-09-04T07:00:29.804Z,51.07
2022-09-04T07:03:17.459Z,51.63
2022-09-04T07:05:32.523Z,50.78
2022-09-04T07:07:56.585Z,50.93
2022-09-04T07:10:10.717Z,50.70
2022-09-04T07:12:33.765Z,50.31
2022-09-04T07:14:55.046Z,50.43
2022-09-04T07:17:19.535Z,49.56
2022-09-04T07:19:58.210Z,50.27
2022-09-04T07:22:19.706Z,49.42
2022-09-04T07:24:29.861Z,49.24
2022-09-04T07:27:11.155Z,49.25
2022-09-04T07:29:35.483Z,48.88
2022-09-04T07:31:56.931Z,48.23
2022-09-04T07:34:14.825Z,48.31
2022-09-04T07:36:39.018Z,48.53
2022-09-04T07:39:05.565Z,48.61
2022-09-04T07:41:17.563Z,47.94
2022-09-04T07:43:32.580Z,46.68
2022-09-04T07:45:39.703Z,46.68
2022-09-04T07:47:55.425Z,46.84
2022-09-04T07:50:12.962Z,46.38
2022-09-04T07:52:50.616Z,46.76
2022-09-04T07:55:12.394Z,46.56
2022-09-04T07:57:50.762Z,45.66
2022-09-04T08:00:10.527Z,45.15
2022-09-04T08:02:32.011Z,45.84
2022-09-04T08:04:53.253Z,45.37
2022-09-04T08:07:01.579Z,45.33
2022-09-04T08:09:29.006Z,43.86
2022-09-04T08:11:55.686Z,43.36
2022-09-04T08:14:02.140Z,43.76
2022-09-04T08:16:23.625Z,44.52
2022-09-04T08:18:45.341Z,43.55
2022-09-04T08:21:27.239Z,44.10
2022-09-04T08:24:01.500Z,44.19
2022-09-04T08:26:29.967Z,44.65
2022-09-04T08:29:00.608Z,44.17
2022-09-04T08:31:21.333Z,43.23
2022-09-04T08:34:02.723Z,42.92
2022-09-04T08:36:21.059Z,42.54
2022-09-04T08:38:47.306Z,42.62
2022-09-04T08:41:07.063Z,42.75
2022-09-04T08:43:21.452Z,41.73
2022-09-04T08:45:42.009Z,40.19
2022-09-04T08:48:19.461Z,38.81
2022-09-04T08:50:51.907Z,39.30
2022-09-04T08:53:15.875Z,40.01
2022-09-04T08:55:39.019Z,40.25
2022-09-04T08:57:50.866Z,39.58
2022-09-04T09:00:15.676Z,38.49
2022-09-04T09:02:36.586Z,39.23
2022-09-04T09:05:00.245Z,39.43
2022-09-04T09:07:34.357Z,39.17
2022-09-04T09:09:51.783Z,38.06
2022-09-04T09:12:09.214Z,38.70
2022-09-04T09:15:00.290Z,38.07
2022-09-04T09:17:34.619Z,37.58
2022-09-04T09:20:07.024Z,36.42
2022-09-04T09:22:38.969Z,37.16
2022-09-04T09:25:00.267Z,35.99
2022-09-04T09:27:12.018Z,34.92
2022-09-04T09:29:20.520Z,35.10
2022-09-04T09:31:52.528Z,34.68
2022-09-04T09:34:11.613Z,34.17
2022-09-04T09:36:44.614Z,34.01
2022-09-04T09:39:17.170Z,33.70
2022-09-04T09:41:33.844Z,34.14
2022-09-04T09:43:57.217Z,34.00
2022-09-04T09:46:08.268Z,33.36
2022-09-04T09:48:48.267Z,32.51
2022-09-04T09:51:18.367Z,32.96
2022-09-04T09:53:51.755Z,33.12
2022-09-04T09:56:31.591Z,33.19
2022-09-04T09:59:09.873Z,32.79
2022-09-04T10:01:24.906Z,31.97
2022-09-04T10:03:39.824Z,32.21
2022-09-04T10:06:09.774Z,32.74
2022-09-04T10:08:35.942Z,32.00
2022-09-04T10:11:23.956Z,33.13
2022-09-04T10:13:54.285Z,32.60
2022-09-04T10:15:56.837Z,33.29
2022-09-04T10:18:32.811Z,32.30
2022-09-04T10:20:41.143Z,32.10
2022-09-04T10:23:00.763Z,31.78
2022-09-04T10:25:33.084Z,31.63
2022-09-04T10:27:55.517Z,31.55
2022-09-04T10:30:16.892Z,31.00
2022-09-04T10:32:33.230Z,30.08
2022-09-04T10:35:09.754Z,29.67
2022-09-04T10:37:31.099Z,30.33
2022-09-04T10:39:54.743Z,31.38
2022-09-04T10:42:10.576Z,30.50
2022-09-04T10:44:26.925Z,30.19
2022-09-04T10:46:58.788Z,29.58
2022-09-04T10:49:11.603Z,29.72
2022-09-04T10:51:23.093Z,29.74
2022-09-04T10:53:36.918Z,29.25
2022-09-04T10:56:19.775Z,30.59
2022-09-04T10:58:54.583Z,30.14
2022-09-04T11:01:21.928Z,29.59
2022-09-04T11:03:46.222Z,29.77
2022-09-04T11:06:12.267Z,29.64
2022-09-04T11:08:40.087Z,29.22
2022-09-04T11:11:31.706Z,28.82
2022-09-04T11:13:56.105Z,28.89
2022-09-04T11:16:21.111Z,28.36
2022-09-04T11:18:34.612Z,28.77
2022-09-04T11:21:08.239Z,28.89
2022-09-04T11:23:48.849Z,29.67
2022-09-04T11:26:06.051Z,30.19
2022-09-04T11:28:40.436Z,31.04
2022-09-04T11:31:10.821Z,30.15
2022-09-04T11:33:48.693Z,30.15
2022-09-04T11:36:07.470Z,30.48
2022-09-04T11:38:28.663Z,30.96
2022-09-04T11:41:03.390Z,30.37
2022-09-04T11:43:39.846Z,30.37
2022-09-04T11:46:11.552Z,31.10
2022-09-04T11:48:17.001Z,30.32
2022-09-04T11:50:52.961Z,29.97
2022-09-04T11:53:08.544Z,30.28
2022-09-04T11:55:40.202Z,31.44
2022-09-04T11:57:48.500Z,31.27
2022-09-04T12:00:09.231Z,30.89
2022-09-04T12:02:30.234Z,31.87
2022-09-04T12:05:03.414Z,31.72
2022-09-04T12:07:43.055Z,31.92
2022-09-04T12:10:21.938Z,32.27
2022-09-04T12:12:50.958Z,32.43
2022-09-04T12:15:23.327Z,32.87
2022-09-04T12:18:08.652Z,33.03
2022-09-04T12:20:42.790Z,33.02
2022-09-04T12:23:17.931Z,33.25
2022-09-04T12:25:47.585Z,33.42
2022-09-04T12:28:27.179Z,33.89
2022-09-04T12:31:11.155Z,33.80
2022-09-04T12:33:48.969Z,33.53
2022-09-04T12:36:23.807Z,32.58
2022-09-04T12:38:47.493Z,33.18
2022-09-04T12:41:12.270Z,33.51
2022-09-04T12:43:20.713Z,33.65
2022-09-04T12:46:04.186Z,33.54
2022-09-04T12:48:33.518Z,34.22
2022-09-04T12:50:57.804Z,34.55
2022-09-04T12:53:01.159Z,33.95
2022-09-04T12:55:23.173Z,34.45
2022-09-04T12:57:48.401Z,34.34
2022-09-04T13:00:12.289Z,33.66
2022-09-04T13:02:17.776Z,33.90
2022-09-04T13:04:22.756Z,33.76
2022-09-04T13:06:41.973Z,33.88
2022-09-04T13:09:01.098Z,34.35
2022-09-04T13:11:23.916Z,34.79
2022-09-04T13:13:44.864Z,35.05
2022-09-04T13:16:07.889Z,35.78
2022-09-04T13:18:36.434Z,35.76
2022-09-04T13:21:02.991Z,36.39
2022-09-04T13:23:37.125Z,36.73
2022-09-04T13:26:24.842Z,36.63
2022-09-04T13:28:38.051Z,36.90
2022-09-04T13:31:07.361Z,36.67
2022-09-04T13:33:13.859Z,36.79
2022-09-04T13:35:39.384Z,36.79
2022-09-04T13:37:52.045Z,36.00
2022-09-04T13:40:14.699Z,35.87
2022-09-04T13:42:37.449Z,36.16
2022-09-04T13:44:58.347Z,36.35
2022-09-04T13:47:11.765Z,36.37
2022-09-04T13:49:21.127Z,35.95
2022-09-04T13:51:30.031Z,35.73
2022-09-04T13:53:55.583Z,36.03
2022-09-04T13:56:04.060Z,36.06
2022-09-04T13:58:20.321Z,36.53
2022-09-04T14:00:24.756Z,36.39
2022-09-04T14:02:30.459Z,36.77
2022-09-04T14:04:44.135Z,36.20
2022-09-04T14:06:48.312Z,36.27
2022-09-04T14:09:04.777Z,36.28
2022-09-04T14:11:40.657Z,35.64
2022-09-04T14:14:23.642Z,35.33
2022-09-04T14:16:26.770Z,35.88
2022-09-04T14:18:35.441Z,35.89
2022-09-04T14:21:01.576Z,36.24
2022-09-04T14:23:22.888Z,36.42
2022-09-04T14:25:35.361Z,36.66
2022-09-04T14:27:39.153Z,37.66
2022-09-04T14:29:57.871Z,37.51
2022-09-04T14:32:32.799Z,38.58
2022-09-04T14:34:56.376Z,38.58
2022-09-04T14:37:27.897Z,39.34
2022-09-04T14:39:31.597Z,39.27
2022-09-04T14:41:36.173Z,38.41
2022-09-04T14:43:42.041Z,38.99
2022-09-04T14:46:12.376Z,38.97
2022-09-04T14:48:17.895Z,39.49
2022-09-04T14:50:24.786Z,39.69
2022-09-04T14:52:36.616Z,39.54
2022-09-04T14:54:46.732Z,39.72
2022-09-04T14:56:53.384Z,40.53
2022-09-04T14:59:13.107Z,40.77
2022-09-04T15:01:21.749Z,41.16
2022-09-04T15:03:30.815Z,41.59
2022-09-04T15:05:57.097Z,42.13
2022-09-04T15:08:11.038Z,42.70
2022-09-04T15:10:28.741Z,43.14
2022-09-04T15:12:38.962Z,43.81
2022-09-04T15:14:45.617Z,44.16
2022-09-04T15:16:54.594Z,44.59
2022-09-04T15:19:41.103Z,45.41
2022-09-04T15:22:05.306Z,45.56
2022-09-04T15:24:16.923Z,44.98
2022-09-04T15:26:25.920Z,44.94
2022-09-04T15:28:38.617Z,44.84
2022-09-04T15:30:46.633Z,45.06
2022-09-04T15:33:02.848Z,45.13
2022-09-04T15:35:09.004Z,45.20
2022-09-04T15:37:27.180Z,45.38
2022-09-04T15:39:40.298Z,45.22
2022-09-04T15:41:47.301Z,45.42
2022-09-04T15:44:00.888Z,45.71
2022-09-04T15:46:11.213Z,45.87
2022-09-04T15:48:38.750Z,45.96
2022-09-04T15:50:58.805Z,46.30
2022-09-04T15:53:25.106Z,46.32
2022-09-04T15:55:40.605Z,46.67
2022-09-04T15:58:10.426Z,46.04
2022-09-04T16:00:22.549Z,46.44
2022-09-04T16:03:03.435Z,46.46
2022-09-04T16:05:28.305Z,46.59
2022-09-04T16:07:34.378Z,46.49
2022-09-04T16:09:45.303Z,46.42
2022-09-04T16:12:12.388Z,46.75
2022-09-04T16:14:23.377Z,46.37
2022-09-04T16:16:26.088Z,46.73
2022-09-04T16:18:38.117Z,46.83
2022-09-04T16:21:04.807Z,46.33
2022-09-04T16:23:10.517Z,46.59
2022-09-04T16:25:23.490Z,46.69
2022-09-04T16:27:28.618Z,46.79
2022-09-04T16:29:44.787Z,47.06
2022-09-04T16:31:57.379Z,47.03
2022-09-04T16:34:26.936Z,46.80
2022-09-04T16:36:40.395Z,46.95
2022-09-04T16:38:57.535Z,47.32
2022-09-04T16:41:25.903Z,46.70
2022-09-04T16:43:34.365Z,46.96
2022-09-04T16:45:46.978Z,47.17
2022-09-04T16:48:26.843Z,46.87
2022-09-04T16:50:54.813Z,46.95
2022-09-04T16:53:24.203Z,46.86
2022-09-04T16:55:34.670Z,46.82
2022-09-04T16:57:41.944Z,47.03
2022-09-04T16:59:50.409Z,46.91
2022-09-04T17:02:03.838Z,46.72
2022-09-04T17:04:28.788Z,46.54
2022-09-04T17:06:44.420Z,46.77
2022-09-04T17:08:54.131Z,46.61
2022-09-04T17:11:12.120Z,47.10
2022-09-04T17:13:52.495Z,47.01
2022-09-04T17:16:13.584Z,47.19
2022-09-04T17:18:22.745Z,47.08
2022-09-04T17:24:56.361Z,46.92
2022-09-04T17:28:54.690Z,47.71
2022-09-04T17:29:10.499Z,47.43
2022-09-04T17:29:18.569Z,47.51
2022-09-04T17:31:38.676Z,47.71
2022-09-04T17:40:38.565Z,47.50
2022-09-04T17:40:47.895Z,47.48
2022-09-04T17:40:57.150Z,47.67
2022-09-04T17:42:24.945Z,47.80
2022-09-04T17:44:46.982Z,47.65
2022-09-04T17:46:49.984Z,47.68
2022-09-04T17:48:54.122Z,47.89
2022-09-04T17:50:59.696Z,47.95
2022-09-04T17:53:05.674Z,48.14
2022-09-04T17:55:14.928Z,48.09
2022-09-04T17:57:46.764Z,48.30
2022-09-04T18:00:07.017Z,48.48
2022-09-04T18:02:22.979Z,48.33
2022-09-04T18:04:57.585Z,48.69
2022-09-04T18:07:57.751Z,48.37
2022-09-04T18:09:55.658Z,48.75
2022-09-04T18:12:23.193Z,48.99
2022-09-04T18:14:39.043Z,48.97
2022-09-04T18:17:11.779Z,49.07
2022-09-04T18:19:36.969Z,48.91
2022-09-04T18:22:06.465Z,49.20
2022-09-04T18:24:17.962Z,49.32
2022-09-04T18:26:39.978Z,49.54
2022-09-04T18:29:56.886Z,49.86
2022-09-04T18:37:08.007Z,49.40
2022-09-04T18:37:18.214Z,49.83
2022-09-04T18:37:27.098Z,49.70
2022-09-04T18:39:39.937Z,49.92
2022-09-04T18:48:54.920Z,50.36
2022-09-04T18:50:30.329Z,50.38
2022-09-04T18:50:45.239Z,50.87
2022-09-04T18:50:51.000Z,51.05
2022-09-04T18:52:14.764Z,50.86
2022-09-04T18:54:26.636Z,51.17
2022-09-04T18:56:30.660Z,51.25
2022-09-04T18:58:45.067Z,51.37
2022-09-04T19:00:59.560Z,51.11
2022-09-04T19:03:11.577Z,51.66
2022-09-04T19:05:18.177Z,51.34
2022-09-04T19:07:32.942Z,51.64
2022-09-04T19:09:55.592Z,51.91
2022-09-04T19:12:09.821Z,51.85
2022-09-04T19:14:24.712Z,52.04
2022-09-04T19:16:52.236Z,52.33
2022-09-04T19:19:00.625Z,52.39
2022-09-04T19:21:09.345Z,52.58
2022-09-04T19:23:32.443Z,52.58
2022-09-04T19:25:40.543Z,52.61
2022-09-04T19:27:54.929Z,52.71
2022-09-04T19:30:18.312Z,52.83
2022-09-04T19:32:37.077Z,53.05
2022-09-04T19:34:55.304Z,53.05
2022-09-04T19:37:39.871Z,53.42
2022-09-04T19:45:56.755Z,53.76
2022-09-04T19:46:07.372Z,53.61
2022-09-04T19:46:08.760Z,53.86
2022-09-04T19:47:32.532Z,54.33
2022-09-04T19:53:02.109Z,53.95
2022-09-04T19:53:34.663Z,54.52
2022-09-04T19:55:24.505Z,54.18
2022-09-04T19:57:33.963Z,54.35
2022-09-04T19:59:45.994Z,54.69
2022-09-04T20:01:58.157Z,54.63
2022-09-04T20:04:23.672Z,54.75
2022-09-04T20:06:36.832Z,55.18
2022-09-04T20:09:33.524Z,54.80
2022-09-04T20:11:56.213Z,54.65
2022-09-04T20:14:13.480Z,54.71
2022-09-04T20:16:21.379Z,54.95
2022-09-04T20:18:39.262Z,55.26
2022-09-04T20:20:47.495Z,55.04
2022-09-04T20:23:29.254Z,55.46
2022-09-04T20:25:52.112Z,55.20
2022-09-04T20:28:08.885Z,55.44
2022-09-04T20:30:19.577Z,55.80
2022-09-04T20:32:27.284Z,55.35
2022-09-04T20:34:40.361Z,55.78
2022-09-04T20:36:49.472Z,55.53
2022-09-04T20:39:03.157Z,55.47
2022-09-04T20:41:12.086Z,56.07
2022-09-04T20:43:51.045Z,55.74
2022-09-04T20:47:51.846Z,55.90
2022-09-04T20:52:56.703Z,55.99
2022-09-04T20:52:59.316Z,55.86
2022-09-04T20:53:43.323Z,56.37
2022-09-04T20:55:54.973Z,56.35
2022-09-04T21:03:08.299Z,56.20
2022-09-04T21:03:23.855Z,56.37
2022-09-04T21:03:33.824Z,56.77
2022-09-04T21:05:49.107Z,56.97
2022-09-04T21:08:30.139Z,57.08
2022-09-04T21:10:47.114Z,57.08
2022-09-04T21:13:15.069Z,57.19
2022-09-04T21:15:52.198Z,57.65
2022-09-04T21:18:21.725Z,57.77
2022-09-04T21:20:59.725Z,57.56
2022-09-04T21:23:35.531Z,58.22
2022-09-04T21:25:56.426Z,58.02
2022-09-04T21:28:22.002Z,58.26
2022-09-04T21:30:58.898Z,58.57
2022-09-04T21:33:27.150Z,58.94
2022-09-04T21:35:50.955Z,59.68
2022-09-04T21:38:04.372Z,59.72
2022-09-04T21:40:49.513Z,59.24
2022-09-04T21:42:59.102Z,59.86
2022-09-04T21:45:07.544Z,60.34
2022-09-04T21:47:55.589Z,61.46
2022-09-04T21:50:35.022Z,62.17
2022-09-04T21:52:56.111Z,62.82
2022-09-04T21:58:11.476Z,63.31
2022-09-04T22:02:27.020Z,63.89
2022-09-04T22:02:49.345Z,64.31
2022-09-04T22:02:57.775Z,65.62
2022-09-04T22:05:27.573Z,67.11
2022-09-04T22:12:01.566Z,67.90
2022-09-04T22:13:37.847Z,69.15
2022-09-04T22:13:40.668Z,68.33
2022-09-04T22:15:17.513Z,70.52
2022-09-04T22:17:57.065Z,70.88
2022-09-04T22:19:59.494Z,71.60
2022-09-04T22:22:34.651Z,71.42
2022-09-04T22:24:55.106Z,72.00
2022-09-04T22:27:31.700Z,72.75
2022-09-04T22:30:08.623Z,73.56
2022-09-04T22:32:26.095Z,74.14
2022-09-04T22:34:47.051Z,75.17
2022-09-04T22:37:16.894Z,75.07
2022-09-04T22:39:57.908Z,74.73
2022-09-04T22:42:20.403Z,74.06
2022-09-04T22:44:55.569Z,73.52
2022-09-04T22:47:52.959Z,72.69
2022-09-04T22:50:04.438Z,70.84
2022-09-04T22:52:16.152Z,70.22
2022-09-04T22:54:21.486Z,68.81
2022-09-04T22:56:39.137Z,67.75
2022-09-04T22:59:07.542Z,67.69
2022-09-04T23:01:45.377Z,66.43
2022-09-04T23:04:06.127Z,66.48
2022-09-04T23:08:46.920Z,65.83
2022-09-04T23:13:48.524Z,65.70
2022-09-04T23:13:54.846Z,65.77
2022-09-04T23:14:38.023Z,65.62
2022-09-04T23:16:49.671Z,66.22
2022-09-04T23:26:32.743Z,67.53
2022-09-04T23:26:35.719Z,66.58
2022-09-04T23:26:53.818Z,68.21
2022-09-04T23:27:00.143Z,69.92
2022-09-04T23:29:26.741Z,70.58
2022-09-04T23:32:07.233Z,71.49
2022-09-04T23:34:36.144Z,72.07
2022-09-04T23:36:47.767Z,72.95
2022-09-04T23:39:07.980Z,73.21
2022-09-04T23:41:30.822Z,73.41
2022-09-04T23:43:33.426Z,73.74
2022-09-04T23:45:55.247Z,73.39
2022-09-04T23:48:11.119Z,73.75
2022-09-04T23:50:29.100Z,73.56
2022-09-04T23:52:49.041Z,73.21
2022-09-04T23:54:57.999Z,72.92
2022-09-04T23:57:15.424Z,73.08
2022-09-04T23:59:37.961Z,71.76
